Ana Sayfa
METAR-TAF:

METAR-TAF

Havaalanları :

Pekin Başkent Uluslararası Havalimanı

Pekin, Çin

Enlem: 39-56N, Boylam: 116-17E, yükseklik: 55 m

Güncel hava durumu gözlemi

Rapor saat 16:30 UTC de 16 dakika önce yapıldı.
Rüzgar kuzeydan 4 kt
Sıcaklık 15°C
Nem 94%
Basınç 1013 hPa
Görüş mesafesi: 6000 m
hafif yağmur

METAR: ZBAA 211630Z 01002MPS 6000 -RA NSC 15/14 Q1013 NOSIG

Saat: 00:46 (16:46 UTC)

Tahmin

Rapor saat 09:30 UTC de 7 saat ve 16 dakika önce yapıldı.
Ayın 21'si saat 12 UTC'den ayın 22'si saat 12 UTC'ye kadar geçerli Tahmin
Rüzgar doğu/güneydoğudan 8 kt
Görüş mesafesi: 4000 m
1200 ft yükseklikte az bulutlu
4000 ft yükseklikte çok bulutlu
hafif yağmur, Pus
Dönüşüyor
ayın 22'si saat 01 UTC'den ayın 22'si saat 02 UTC'ye kadar
Rüzgar kuzeybatıdan 14 kt ve 27 kt'a kadar ani rüzgarlar

TAF: ZBAA 210930Z 2112/2212 11004MPS 4000 -RA BR FEW012 OVC040 TX24/2207Z TN14/2122Z BECMG 2201/2202 31007G14MPS

4.000'den fazla havaalanı için hava durumu gözlemleri ve tahminleri (METAR ve TAF raporları).

Kullanılabilir istasyonlar harita üzerinde sarı ve kırmızı noktalarla gösterilir.

İstasyonun adını görmek için fareyi noktanın üzerinde gezdirin.

Sonrasında hava gözlem ve tahminlerini görmek için tıklayın.

Haritayı değiştirmek için: yaklaştırmak için siyah artı işaretli yeşil düğmeye ve uzaklaştırmak için de eksi işaretli düğmeye hızla tıklayın; bitişik haritalar için yeşil okları kullanın.


METAR-TAF: